createdAt,value
2022-11-05T00:01:28.331Z,13.88
2022-11-05T00:04:49.058Z,14.80
2022-11-05T00:08:11.825Z,13.27
2022-11-05T00:11:18.109Z,14.88
2022-11-05T00:14:39.687Z,15.10
2022-11-05T00:17:42.246Z,15.27
2022-11-05T00:20:44.971Z,19.95
2022-11-05T00:24:05.843Z,15.03
2022-11-05T00:27:10.694Z,17.90
2022-11-05T00:30:18.063Z,16.35
2022-11-05T00:33:23.153Z,16.98
2022-11-05T00:36:25.488Z,16.80
2022-11-05T00:39:27.872Z,15.83
2022-11-05T00:42:49.103Z,15.27
2022-11-05T00:45:51.484Z,15.02
2022-11-05T00:49:12.252Z,15.60
2022-11-05T00:52:33.063Z,16.40
2022-11-05T00:55:35.398Z,15.13
2022-11-05T00:58:37.848Z,15.55
2022-11-05T01:01:40.714Z,14.38
2022-11-05T01:04:43.226Z,14.73
2022-11-05T01:07:45.673Z,14.10
2022-11-05T01:10:51.454Z,15.50
2022-11-05T01:13:53.754Z,13.82
2022-11-05T01:16:56.170Z,14.27
2022-11-05T01:20:01.387Z,16.02
2022-11-05T01:23:05.480Z,15.35
2022-11-05T01:26:11.325Z,13.63
2022-11-05T01:29:13.786Z,14.57
2022-11-05T01:32:16.779Z,14.43
2022-11-05T01:35:19.154Z,14.15
2022-11-05T01:38:21.978Z,15.85
2022-11-05T01:41:24.324Z,15.57
2022-11-05T01:44:54.334Z,15.65
2022-11-05T01:48:02.569Z,16.50
2022-11-05T01:51:08.469Z,15.70
2022-11-05T01:54:14.306Z,15.40
2022-11-05T01:57:16.847Z,16.20
2022-11-05T02:00:20.854Z,15.88
2022-11-05T02:03:23.989Z,16.50
2022-11-05T02:06:27.565Z,14.73
2022-11-05T02:09:34.907Z,14.88
2022-11-05T02:12:39.890Z,14.07
2022-11-05T02:16:27.170Z,15.13
2022-11-05T02:20:00.400Z,15.25
2022-11-05T02:23:25.912Z,16.58
2022-11-05T02:27:02.310Z,16.80
2022-11-05T02:30:19.889Z,15.23
2022-11-05T02:33:35.808Z,15.27
2022-11-05T02:36:41.397Z,15.50
2022-11-05T02:40:05.582Z,14.75
2022-11-05T02:43:43.627Z,15.35
2022-11-05T02:46:52.968Z,15.33
2022-11-05T02:50:15.082Z,16.13
2022-11-05T02:53:35.305Z,15.73
2022-11-05T02:56:40.550Z,16.63
2022-11-05T02:59:43.085Z,15.98
2022-11-05T03:02:45.728Z,14.77
2022-11-05T03:06:19.089Z,13.57
2022-11-05T03:09:45.619Z,14.13
2022-11-05T03:12:48.088Z,13.48
2022-11-05T03:15:56.958Z,14.02
2022-11-05T03:19:08.537Z,14.23
2022-11-05T03:22:24.134Z,13.57
2022-11-05T03:25:28.319Z,13.27
2022-11-05T03:28:33.134Z,14.15
2022-11-05T03:31:37.307Z,14.93
2022-11-05T03:34:47.221Z,13.87
2022-11-05T03:37:51.256Z,14.18
2022-11-05T03:40:55.450Z,14.02
2022-11-05T03:43:58.851Z,12.50
2022-11-05T03:47:05.493Z,14.18
2022-11-05T03:50:14.180Z,14.10
2022-11-05T03:53:26.274Z,13.38
2022-11-05T03:56:30.779Z,14.60
2022-11-05T03:59:39.951Z,14.27
2022-11-05T04:02:42.590Z,13.93
2022-11-05T04:06:05.059Z,13.13
2022-11-05T04:09:26.031Z,15.07
2022-11-05T04:12:46.748Z,14.60
2022-11-05T04:16:07.494Z,14.45
2022-11-05T04:19:09.854Z,13.93
2022-11-05T04:22:30.982Z,14.30
2022-11-05T04:25:33.804Z,13.77
2022-11-05T04:28:54.543Z,15.20
2022-11-05T04:31:59.803Z,15.73
2022-11-05T04:35:02.122Z,15.43
2022-11-05T04:38:06.021Z,16.57
2022-11-05T04:41:17.692Z,17.38
2022-11-05T04:44:20.038Z,17.83
2022-11-05T04:47:22.372Z,16.15
2022-11-05T04:50:26.663Z,17.75
2022-11-05T04:53:29.257Z,16.97
2022-11-05T04:56:31.631Z,19.02
2022-11-05T04:59:33.974Z,22.63
2022-11-05T05:02:36.527Z,20.33
2022-11-05T05:05:38.883Z,17.90
2022-11-05T05:08:41.524Z,17.90
2022-11-05T05:11:43.929Z,18.35
2022-11-05T05:14:48.013Z,18.35
2022-11-05T05:17:53.553Z,17.83
2022-11-05T05:21:18.404Z,17.70
2022-11-05T05:24:21.408Z,17.67
2022-11-05T05:27:24.430Z,18.98
2022-11-05T05:30:29.364Z,17.88
2022-11-05T05:33:31.661Z,21.20
2022-11-05T05:36:34.055Z,18.55
2022-11-05T05:39:36.400Z,18.53
2022-11-05T05:42:42.929Z,18.85
2022-11-05T05:45:45.827Z,19.05
2022-11-05T05:48:50.028Z,20.27
2022-11-05T05:51:52.422Z,21.70
2022-11-05T05:54:54.830Z,21.40
2022-11-05T05:57:57.139Z,22.35
2022-11-05T06:01:17.418Z,20.45
2022-11-05T06:04:21.469Z,21.80
2022-11-05T06:07:23.843Z,22.27
2022-11-05T06:10:26.305Z,20.97
2022-11-05T06:13:29.265Z,20.92
2022-11-05T06:16:35.881Z,21.48
2022-11-05T06:19:38.385Z,22.38
2022-11-05T06:22:40.870Z,22.08
2022-11-05T06:25:43.243Z,21.50
2022-11-05T06:28:46.502Z,20.88
2022-11-05T06:31:48.979Z,24.83
2022-11-05T06:34:51.375Z,22.60
2022-11-05T06:37:53.758Z,25.02
2022-11-05T06:40:58.709Z,21.47
2022-11-05T06:44:01.177Z,23.35
2022-11-05T06:47:03.596Z,22.25
2022-11-05T06:50:06.485Z,21.92
2022-11-05T06:53:09.302Z,21.70
2022-11-05T06:56:12.133Z,22.77
2022-11-05T06:59:14.804Z,22.27
2022-11-05T07:02:18.294Z,21.15
2022-11-05T07:05:20.684Z,21.70
2022-11-05T07:08:24.053Z,22.38
2022-11-05T07:11:26.434Z,22.07
2022-11-05T07:14:30.125Z,21.27
2022-11-05T07:17:32.564Z,20.63
2022-11-05T07:20:35.449Z,21.80
2022-11-05T07:23:37.913Z,20.45
2022-11-05T07:26:40.256Z,20.67
2022-11-05T07:29:42.846Z,18.67
2022-11-05T07:32:45.351Z,20.80
2022-11-05T07:35:47.791Z,19.40
2022-11-05T07:38:50.170Z,19.00
2022-11-05T07:41:57.705Z,20.20
2022-11-05T07:45:07.877Z,20.20
2022-11-05T07:48:10.238Z,19.23
2022-11-05T07:51:12.550Z,21.27
2022-11-05T07:54:14.965Z,20.48
2022-11-05T07:57:17.359Z,19.43
2022-11-05T08:00:21.894Z,20.75
2022-11-05T08:03:24.603Z,19.80
2022-11-05T08:06:27.069Z,19.40
2022-11-05T08:09:29.520Z,19.00
2022-11-05T08:12:32.438Z,17.90
2022-11-05T08:15:35.469Z,18.58
2022-11-05T08:18:37.903Z,19.90
2022-11-05T08:21:40.348Z,18.67
2022-11-05T08:24:42.774Z,18.70
2022-11-05T08:27:45.806Z,18.00
2022-11-05T08:30:50.004Z,23.00
2022-11-05T08:33:57.119Z,26.90
2022-11-05T08:37:02.329Z,20.50
2022-11-05T08:40:05.319Z,19.63
2022-11-05T08:43:08.418Z,21.20
2022-11-05T08:46:11.083Z,27.38
2022-11-05T08:49:13.442Z,34.35
2022-11-05T08:52:15.950Z,23.67
2022-11-05T08:55:19.027Z,17.65
2022-11-05T08:58:21.413Z,19.43
2022-11-05T09:01:26.797Z,20.15
2022-11-05T09:04:30.500Z,21.98
2022-11-05T09:07:32.961Z,22.95
2022-11-05T09:10:35.868Z,25.55
2022-11-05T09:13:38.400Z,24.80
2022-11-05T09:16:42.522Z,24.15
2022-11-05T09:19:45.178Z,24.20
2022-11-05T09:22:47.648Z,20.17
2022-11-05T09:25:49.990Z,22.15
2022-11-05T09:28:52.353Z,19.10
2022-11-05T09:31:54.742Z,18.17
2022-11-05T09:34:57.098Z,20.15
2022-11-05T09:38:01.160Z,23.00
2022-11-05T09:41:24.216Z,22.45
2022-11-05T09:44:47.655Z,22.10
2022-11-05T09:47:54.725Z,22.35
2022-11-05T09:50:58.289Z,24.77
2022-11-05T09:54:00.775Z,23.38
2022-11-05T09:57:04.013Z,22.80
2022-11-05T10:00:08.603Z,22.87
2022-11-05T10:03:14.541Z,22.33
2022-11-05T10:06:22.122Z,21.33
2022-11-05T10:09:30.192Z,21.67
2022-11-05T10:12:40.371Z,22.90
2022-11-05T10:16:18.119Z,23.77
2022-11-05T10:19:24.553Z,24.83
2022-11-05T10:22:27.080Z,23.33
2022-11-05T10:25:32.023Z,23.45
2022-11-05T10:28:34.860Z,23.65
2022-11-05T10:31:37.822Z,20.50
2022-11-05T10:34:40.308Z,23.92
2022-11-05T10:37:42.670Z,21.90
2022-11-05T10:40:59.897Z,21.90
2022-11-05T10:44:23.473Z,21.30
2022-11-05T10:47:39.091Z,23.60
2022-11-05T10:50:44.176Z,24.20
2022-11-05T10:53:55.941Z,22.95
2022-11-05T10:57:01.170Z,23.60
2022-11-05T11:00:15.941Z,25.40
2022-11-05T11:03:40.088Z,23.60
2022-11-05T11:06:51.358Z,24.65
2022-11-05T11:09:54.012Z,25.65
2022-11-05T11:12:57.122Z,24.58
2022-11-05T11:16:19.909Z,23.58
2022-11-05T11:19:33.562Z,23.70
2022-11-05T11:22:35.885Z,23.80
2022-11-05T11:25:52.077Z,25.13
2022-11-05T11:29:23.515Z,23.55
2022-11-05T11:32:32.477Z,24.67
2022-11-05T11:35:37.862Z,23.50
2022-11-05T11:38:40.797Z,22.48
2022-11-05T11:41:44.234Z,25.77
2022-11-05T11:44:47.748Z,24.52
2022-11-05T11:47:50.966Z,24.70
2022-11-05T11:50:53.855Z,24.40
2022-11-05T11:53:58.362Z,24.90
2022-11-05T11:57:00.848Z,25.65
2022-11-05T12:00:11.256Z,22.73
2022-11-05T12:03:31.739Z,25.80
2022-11-05T12:07:05.685Z,26.37
2022-11-05T12:10:29.866Z,27.75
2022-11-05T12:13:55.390Z,28.38
2022-11-05T12:17:23.935Z,22.48
2022-11-05T12:20:34.154Z,25.77
2022-11-05T12:23:42.393Z,27.83
2022-11-05T12:27:11.050Z,24.20
2022-11-05T12:30:19.201Z,23.27
2022-11-05T12:33:33.806Z,25.98
2022-11-05T12:37:20.321Z,25.98
2022-11-05T12:40:50.567Z,23.77
2022-11-05T12:43:56.035Z,24.48
2022-11-05T12:47:14.663Z,25.02
2022-11-05T12:50:22.934Z,22.77
2022-11-05T12:53:34.366Z,22.65
2022-11-05T12:56:43.654Z,20.53
2022-11-05T13:00:06.741Z,22.48
2022-11-05T13:03:23.320Z,22.98
2022-11-05T13:06:30.996Z,22.38
2022-11-05T13:10:05.709Z,21.75
2022-11-05T13:13:38.219Z,22.27
2022-11-05T13:16:44.840Z,22.48
2022-11-05T13:19:52.608Z,20.98
2022-11-05T13:23:14.117Z,27.65
2022-11-05T13:26:27.550Z,24.38
2022-11-05T13:29:37.748Z,26.57
2022-11-05T13:32:45.049Z,24.27
2022-11-05T13:36:20.625Z,21.08
2022-11-05T13:39:25.087Z,21.30
2022-11-05T13:42:58.473Z,19.15
2022-11-05T13:46:25.207Z,19.63
2022-11-05T13:49:33.302Z,20.38
2022-11-05T13:52:50.872Z,21.67
2022-11-05T13:56:16.349Z,19.15
2022-11-05T13:59:48.906Z,18.67
2022-11-05T14:02:55.973Z,17.53
2022-11-05T14:06:10.030Z,17.25
2022-11-05T14:09:18.883Z,17.55
2022-11-05T14:12:36.793Z,17.63
2022-11-05T14:15:39.197Z,16.83
2022-11-05T14:18:44.311Z,18.37
2022-11-05T14:21:54.845Z,15.75
2022-11-05T14:24:57.943Z,12.93
2022-11-05T14:28:00.529Z,18.40
2022-11-05T14:31:05.398Z,14.50
2022-11-05T14:34:10.845Z,12.77
2022-11-05T14:37:13.341Z,14.40
2022-11-05T14:40:21.920Z,14.57
2022-11-05T14:43:26.022Z,12.05
2022-11-05T14:46:42.194Z,11.88
2022-11-05T14:50:09.200Z,12.17
2022-11-05T14:53:25.415Z,11.68
2022-11-05T14:56:27.910Z,11.63
2022-11-05T14:59:32.758Z,9.55
2022-11-05T15:02:38.532Z,10.60
2022-11-05T15:05:53.247Z,9.37
2022-11-05T15:08:56.400Z,10.50
2022-11-05T15:12:46.638Z,9.57
2022-11-05T15:15:50.758Z,8.57
2022-11-05T15:18:54.150Z,8.48
2022-11-05T15:21:58.699Z,8.53
2022-11-05T15:25:01.878Z,8.70
2022-11-05T15:28:27.265Z,7.93
2022-11-05T15:31:32.552Z,6.05
2022-11-05T15:34:35.712Z,7.05
2022-11-05T15:37:52.358Z,6.43
2022-11-05T15:41:03.001Z,5.43
2022-11-05T15:44:05.542Z,4.78
2022-11-05T15:47:16.891Z,4.32
2022-11-05T15:50:19.406Z,4.75
2022-11-05T15:53:51.552Z,4.10
2022-11-05T15:56:57.949Z,4.63
2022-11-05T16:00:04.844Z,4.93
2022-11-05T16:03:18.527Z,6.28
2022-11-05T16:06:23.586Z,4.90
2022-11-05T16:09:28.245Z,3.90
2022-11-05T16:12:35.475Z,4.80
2022-11-05T16:15:38.201Z,6.53
2022-11-05T16:18:41.723Z,4.70
2022-11-05T16:21:54.797Z,4.63
2022-11-05T16:24:57.443Z,3.73
2022-11-05T16:28:00.953Z,4.05
2022-11-05T16:31:05.774Z,3.53
2022-11-05T16:34:26.201Z,5.07
2022-11-05T16:37:31.713Z,3.95
2022-11-05T16:40:34.273Z,5.53
2022-11-05T16:43:36.941Z,3.95
2022-11-05T16:46:40.345Z,3.67
2022-11-05T16:49:42.983Z,3.08
2022-11-05T16:52:46.481Z,3.80
2022-11-05T16:55:49.757Z,4.13
2022-11-05T16:58:52.599Z,3.17
2022-11-05T17:01:56.085Z,3.38
2022-11-05T17:04:58.886Z,3.72
2022-11-05T17:08:03.523Z,3.88
2022-11-05T17:11:06.842Z,2.80
2022-11-05T17:14:13.103Z,3.78
2022-11-05T17:17:16.276Z,1.90
2022-11-05T17:20:39.890Z,2.70
2022-11-05T17:23:43.714Z,2.58
2022-11-05T17:26:46.521Z,2.50
2022-11-05T17:29:49.342Z,5.00
2022-11-05T17:32:52.424Z,2.97
2022-11-05T17:35:56.249Z,2.65
2022-11-05T17:38:58.925Z,2.20
2022-11-05T17:42:01.549Z,1.63
2022-11-05T17:45:04.810Z,3.00
2022-11-05T17:48:09.352Z,2.10
2022-11-05T17:51:18.523Z,1.90
2022-11-05T17:54:21.196Z,2.60
2022-11-05T17:57:23.915Z,2.80
2022-11-05T18:00:28.536Z,2.70
2022-11-05T18:03:31.663Z,4.05
2022-11-05T18:06:34.448Z,3.53
2022-11-05T18:09:37.784Z,3.30
2022-11-05T18:12:41.019Z,2.60
2022-11-05T18:15:44.691Z,4.68
2022-11-05T18:18:48.798Z,2.30
2022-11-05T18:21:51.625Z,2.53
2022-11-05T18:24:54.849Z,3.10
2022-11-05T18:27:57.679Z,6.40
2022-11-05T18:31:00.558Z,3.40
2022-11-05T18:34:03.655Z,3.03
2022-11-05T18:37:06.426Z,3.97
2022-11-05T18:40:10.057Z,6.13
2022-11-05T18:43:13.773Z,13.37
2022-11-05T18:46:43.148Z,16.70
2022-11-05T18:49:40.236Z,5.80
2022-11-05T18:52:43.303Z,6.05
2022-11-05T18:55:46.058Z,5.95
2022-11-05T18:58:49.730Z,6.30
2022-11-05T19:01:53.309Z,6.45
2022-11-05T19:05:26.650Z,7.93
2022-11-05T19:08:19.089Z,11.57
2022-11-05T19:11:23.652Z,4.97
2022-11-05T19:14:26.558Z,4.57
2022-11-05T19:17:29.401Z,3.40
2022-11-05T19:20:37.635Z,4.28
2022-11-05T19:23:41.140Z,3.88
2022-11-05T19:26:44.257Z,3.20
2022-11-05T19:29:47.684Z,3.40
2022-11-05T19:32:50.474Z,1.88
2022-11-05T19:35:53.287Z,2.10
2022-11-05T19:38:58.612Z,2.15
2022-11-05T19:42:03.770Z,1.17
2022-11-05T19:45:30.231Z,1.80
2022-11-05T19:48:31.516Z,2.20
2022-11-05T19:51:34.415Z,2.33
2022-11-05T19:54:37.533Z,2.33
2022-11-05T19:57:40.243Z,4.88
2022-11-05T20:00:43.392Z,3.20
2022-11-05T20:03:46.721Z,10.88
2022-11-05T20:06:49.659Z,15.32
2022-11-05T20:09:52.483Z,16.48
2022-11-05T20:12:55.209Z,13.57
2022-11-05T20:15:58.517Z,15.83
2022-11-05T20:19:01.312Z,17.13
2022-11-05T20:22:04.100Z,16.58
2022-11-05T20:25:07.134Z,26.23
2022-11-05T20:28:10.308Z,18.90
2022-11-05T20:31:15.638Z,14.30
2022-11-05T20:34:19.239Z,9.45
2022-11-05T20:37:21.940Z,14.70
2022-11-05T20:40:24.918Z,7.28
2022-11-05T20:43:30.652Z,2.05
2022-11-05T20:46:33.430Z,1.40
2022-11-05T20:49:36.262Z,3.35
2022-11-05T20:52:39.085Z,2.15
2022-11-05T20:55:46.650Z,1.98
2022-11-05T20:58:49.529Z,1.67
2022-11-05T21:01:52.416Z,1.70
2022-11-05T21:04:55.162Z,1.08
2022-11-05T21:07:57.982Z,2.05
2022-11-05T21:11:01.197Z,1.95
2022-11-05T21:14:03.961Z,2.90
2022-11-05T21:17:07.966Z,3.40
2022-11-05T21:20:10.720Z,3.60
2022-11-05T21:23:14.254Z,5.00
2022-11-05T21:26:18.012Z,3.80
2022-11-05T21:29:20.792Z,4.45
2022-11-05T21:32:23.311Z,10.30
2022-11-05T21:35:26.105Z,6.80
2022-11-05T21:38:29.130Z,6.50
2022-11-05T21:41:31.928Z,8.63
2022-11-05T21:44:34.747Z,6.88
2022-11-05T21:47:37.488Z,2.87
2022-11-05T21:50:59.567Z,4.32
2022-11-05T21:54:21.084Z,4.30
2022-11-05T21:57:42.384Z,2.88
2022-11-05T22:00:45.138Z,2.95
2022-11-05T22:03:49.897Z,2.13
2022-11-05T22:06:52.447Z,2.90
2022-11-05T22:09:55.406Z,2.38
2022-11-05T22:12:57.928Z,1.42
2022-11-05T22:16:00.707Z,1.58
2022-11-05T22:19:03.441Z,1.93
2022-11-05T22:22:06.862Z,2.13
2022-11-05T22:25:09.496Z,2.25
2022-11-05T22:28:12.439Z,1.48
2022-11-05T22:31:16.254Z,1.92
2022-11-05T22:34:19.049Z,1.20
2022-11-05T22:37:22.758Z,1.20
2022-11-05T22:40:25.401Z,1.70
2022-11-05T22:43:27.925Z,1.58
2022-11-05T22:46:30.657Z,1.73
2022-11-05T22:49:33.740Z,1.30
2022-11-05T22:52:36.211Z,1.33
2022-11-05T22:55:41.381Z,1.77
2022-11-05T22:58:43.864Z,1.38
2022-11-05T23:01:46.875Z,1.70
2022-11-05T23:04:51.503Z,1.20
2022-11-05T23:08:12.441Z,1.40
2022-11-05T23:11:41.196Z,1.40
2022-11-05T23:14:43.528Z,1.55
2022-11-05T23:18:04.237Z,1.67
2022-11-05T23:21:25.894Z,1.83
2022-11-05T23:24:28.408Z,1.23
2022-11-05T23:27:32.899Z,1.17
2022-11-05T23:30:56.879Z,1.30
2022-11-05T23:33:59.226Z,1.63
2022-11-05T23:37:20.139Z,1.40
2022-11-05T23:40:28.304Z,1.55
2022-11-05T23:43:49.388Z,1.30
2022-11-05T23:47:10.492Z,1.38
2022-11-05T23:50:13.016Z,1.65
2022-11-05T23:53:15.846Z,1.67
2022-11-05T23:56:18.223Z,1.13
2022-11-05T23:59:20.615Z,1.50
